Jeffboat — WDC6544 — position and weather

sailwx.info

Track history (hours):
 
Tides and Currents Weather Stations Pressure Air Temp Water Temp Dewpoint Dewpoint Depression Visibility Wind Speed Wind Dir Waves Ship Positions

Jeffboat

Owner: American Commercial Lines LLC, Jeffersonville, IN. More information available from US FCC via Universal Licensing System and Coast Guard Vessel Documentation Center.

Last reported at 2017-Nov-11 16:12 UTC. Time now 2017-Nov-24 14:48 UTC.
Position N 32°45' W 091°09'.
Warning: this ship's position is 12 days out of date.

Length 43 m; draft 3 m.

Type: Towing. MMSI: 367057720.

Date/timePositionNaut miles runAvg speedWind from/ knotsBaromVisibWave heightAir tempDewpointWater temp
2017-Nov-11 16:12N 32°45' W 091°09'1 4.8
2017-Nov-11 15:59N 32°45' W 091°09'3 0.9
2017-Nov-11 12:01N 32°44' W 091°05'0 4.1
2017-Nov-11 12:00N 32°44' W 091°05'4 2.7
2017-Nov-11 10:38N 32°41' W 091°06'1 3.6
2017-Nov-11 10:29N 32°40' W 091°06'3 3.4
2017-Nov-11 09:33N 32°38' W 091°09'0 3.0
2017-Nov-11 09:30N 32°38' W 091°09'2 3.3
2017-Nov-11 09:00N 32°37' W 091°09'1 2.5
2017-Nov-11 08:30N 32°35' W 091°08'2 3.6
2017-Nov-11 08:00N 32°34' W 091°06'2 3.6
2017-Nov-11 07:28N 32°33' W 091°06'2 4.4
2017-Nov-11 07:00N 32°31' W 091°07'1 2.6
2017-Nov-11 06:30N 32°29' W 091°07'2 4.3
2017-Nov-11 06:00N 32°28' W 091°06'2 4.3
2017-Nov-11 05:30N 32°26' W 091°04'2 4.1
2017-Nov-11 05:00N 32°26' W 091°01'2 4.0
2017-Nov-11 04:30N 32°24' W 090°59'2 3.7
2017-Nov-11 04:00N 32°23' W 091°00'2 3.2
2017-Nov-11 03:30N 32°21' W 090°59'2 4.2
2017-Nov-11 03:00N 32°21' W 090°57'2 4.1
2017-Nov-11 02:30N 32°20' W 090°55'2 3.7
2017-Nov-11 02:00N 32°19' W 090°55'1 1.6
2017-Nov-11 01:30N 32°18' W 090°55'0 0.0
2017-Nov-11 01:00N 32°18' W 090°55'0 0.0
2017-Nov-11 00:30N 32°18' W 090°55'0 0.0
2017-Nov-11 00:00N 32°18' W 090°55'0 0.0
2017-Nov-10 23:30N 32°18' W 090°55'0 0.0
2017-Nov-10 23:00N 32°18' W 090°55'0 0.9
2017-Nov-10 22:30N 32°18' W 090°56'2 4.2
2017-Nov-10 22:00N 32°16' W 090°57'2 3.6
2017-Nov-10 21:30N 32°15' W 090°59'2 3.1
2017-Nov-10 21:00N 32°13' W 090°59'2 3.8
2017-Nov-10 20:30N 32°12' W 090°59'2 3.2
2017-Nov-10 20:00N 32°10' W 090°60'2 3.5
2017-Nov-10 19:30N 32°08' W 091°00'2 3.3
2017-Nov-10 18:59N 32°07' W 091°02'4 2.6
2017-Nov-10 17:36N 32°08' W 091°06'0 3.7
2017-Nov-10 17:30N 32°08' W 091°06'2 3.3
2017-Nov-10 17:00N 32°06' W 091°06'4 2.1
2017-Nov-10 15:14N 32°03' W 091°03'  
2017-Nov-04 18:54N 31°60' W 091°06'4 8.1
2017-Nov-04 18:25N 32°03' W 091°03'4 7.5
2017-Nov-04 17:50N 32°07' W 091°06'2 5.1
2017-Nov-04 17:29N 32°08' W 091°05'4 7.3
2017-Nov-04 17:00N 32°08' W 091°01'4 7.8
2017-Nov-04 16:30N 32°11' W 090°60'4 8.0
2017-Nov-04 16:00N 32°15' W 090°59'4 7.5
2017-Nov-04 15:30N 32°18' W 090°55'3 5.8
2017-Nov-04 15:00N 32°21' W 090°55'2 3.0
2017-Nov-04 14:30N 32°21' W 090°57'0 0.1
2017-Nov-04 14:00N 32°21' W 090°57'0 0.0
2017-Nov-04 13:30N 32°21' W 090°57'0 0.0
2017-Nov-04 13:00N 32°21' W 090°57'0 0.0
2017-Nov-04 12:30N 32°21' W 090°57'0 0.0
2017-Nov-04 12:00N 32°21' W 090°57'0 0.0
2017-Nov-04 11:30N 32°21' W 090°57'0 0.0
2017-Nov-04 11:00N 32°21' W 090°57'0 0.0
2017-Nov-04 10:30N 32°21' W 090°57'0 0.0
2017-Nov-04 10:00N 32°21' W 090°57'0 0.0
2017-Nov-04 09:30N 32°21' W 090°57'0 0.0
2017-Nov-04 09:00N 32°21' W 090°57'0 0.0
2017-Nov-04 08:30N 32°21' W 090°57'0 0.0
2017-Nov-04 08:00N 32°21' W 090°57'0 0.0
2017-Nov-04 07:30N 32°21' W 090°57'0 0.0
2017-Nov-04 07:00N 32°21' W 090°57'0 0.0
2017-Nov-04 06:30N 32°21' W 090°57'0 0.0
2017-Nov-04 06:00N 32°21' W 090°57'0 0.0
2017-Nov-04 05:30N 32°21' W 090°57'0 0.0
2017-Nov-04 05:00N 32°21' W 090°57'0 0.0
2017-Nov-04 04:30N 32°21' W 090°57'1 2.3
2017-Nov-04 04:00N 32°21' W 090°58'3 5.5
2017-Nov-04 03:30N 32°24' W 090°60'3 6.5
2017-Nov-04 03:00N 32°26' W 091°02'3 7.0
2017-Nov-04 02:30N 32°27' W 091°06'4 6.5
2017-Nov-04 01:57N 32°31' W 091°06'3 7.0
2017-Nov-04 01:30N 32°34' W 091°07'4 7.2
2017-Nov-04 01:00N 32°37' W 091°09'  
Track history (hours):
 
Tides and Currents Weather Stations Pressure Air Temp Water Temp Dewpoint Dewpoint Depression Visibility Wind Speed Wind Dir Waves Ship Positions

Jeffboat

Owner: American Commercial Lines LLC, Jeffersonville, IN. More information available from US FCC via Universal Licensing System and Coast Guard Vessel Documentation Center.

Last reported at 2017-Nov-11 16:12 UTC. Time now 2017-Nov-24 14:48 UTC.
Position N 32°45' W 091°09'.
Warning: this ship's position is 12 days out of date.

Length 43 m; draft 3 m.

Type: Towing. MMSI: 367057720.

Date/timePositionNaut miles runAvg speedWind from/ knotsBaromVisibWave heightAir tempDewpointWater temp
2017-Nov-11 16:12N 32°45' W 091°09'1 4.8
2017-Nov-11 15:59N 32°45' W 091°09'3 0.9
2017-Nov-11 12:01N 32°44' W 091°05'0 4.1
2017-Nov-11 12:00N 32°44' W 091°05'4 2.7
2017-Nov-11 10:38N 32°41' W 091°06'1 3.6
2017-Nov-11 10:29N 32°40' W 091°06'3 3.4
2017-Nov-11 09:33N 32°38' W 091°09'0 3.0
2017-Nov-11 09:30N 32°38' W 091°09'2 3.3
2017-Nov-11 09:00N 32°37' W 091°09'1 2.5
2017-Nov-11 08:30N 32°35' W 091°08'2 3.6
2017-Nov-11 08:00N 32°34' W 091°06'2 3.6
2017-Nov-11 07:28N 32°33' W 091°06'2 4.4
2017-Nov-11 07:00N 32°31' W 091°07'1 2.6
2017-Nov-11 06:30N 32°29' W 091°07'2 4.3
2017-Nov-11 06:00N 32°28' W 091°06'2 4.3
2017-Nov-11 05:30N 32°26' W 091°04'2 4.1
2017-Nov-11 05:00N 32°26' W 091°01'2 4.0
2017-Nov-11 04:30N 32°24' W 090°59'2 3.7
2017-Nov-11 04:00N 32°23' W 091°00'2 3.2
2017-Nov-11 03:30N 32°21' W 090°59'2 4.2
2017-Nov-11 03:00N 32°21' W 090°57'2 4.1
2017-Nov-11 02:30N 32°20' W 090°55'2 3.7
2017-Nov-11 02:00N 32°19' W 090°55'1 1.6
2017-Nov-11 01:30N 32°18' W 090°55'0 0.0
2017-Nov-11 01:00N 32°18' W 090°55'0 0.0
2017-Nov-11 00:30N 32°18' W 090°55'0 0.0
2017-Nov-11 00:00N 32°18' W 090°55'0 0.0
2017-Nov-10 23:30N 32°18' W 090°55'0 0.0
2017-Nov-10 23:00N 32°18' W 090°55'0 0.9
2017-Nov-10 22:30N 32°18' W 090°56'2 4.2
2017-Nov-10 22:00N 32°16' W 090°57'2 3.6
2017-Nov-10 21:30N 32°15' W 090°59'2 3.1
2017-Nov-10 21:00N 32°13' W 090°59'2 3.8
2017-Nov-10 20:30N 32°12' W 090°59'2 3.2
2017-Nov-10 20:00N 32°10' W 090°60'2 3.5
2017-Nov-10 19:30N 32°08' W 091°00'2 3.3
2017-Nov-10 18:59N 32°07' W 091°02'4 2.6
2017-Nov-10 17:36N 32°08' W 091°06'0 3.7
2017-Nov-10 17:30N 32°08' W 091°06'2 3.3
2017-Nov-10 17:00N 32°06' W 091°06'4 2.1
2017-Nov-10 15:14N 32°03' W 091°03'  
2017-Nov-04 18:54N 31°60' W 091°06'4 8.1
2017-Nov-04 18:25N 32°03' W 091°03'4 7.5
2017-Nov-04 17:50N 32°07' W 091°06'2 5.1
2017-Nov-04 17:29N 32°08' W 091°05'4 7.3
2017-Nov-04 17:00N 32°08' W 091°01'4 7.8
2017-Nov-04 16:30N 32°11' W 090°60'4 8.0
2017-Nov-04 16:00N 32°15' W 090°59'4 7.5
2017-Nov-04 15:30N 32°18' W 090°55'3 5.8
2017-Nov-04 15:00N 32°21' W 090°55'2 3.0
2017-Nov-04 14:30N 32°21' W 090°57'0 0.1
2017-Nov-04 14:00N 32°21' W 090°57'0 0.0
2017-Nov-04 13:30N 32°21' W 090°57'0 0.0
2017-Nov-04 13:00N 32°21' W 090°57'0 0.0
2017-Nov-04 12:30N 32°21' W 090°57'0 0.0
2017-Nov-04 12:00N 32°21' W 090°57'0 0.0
2017-Nov-04 11:30N 32°21' W 090°57'0 0.0
2017-Nov-04 11:00N 32°21' W 090°57'0 0.0
2017-Nov-04 10:30N 32°21' W 090°57'0 0.0
2017-Nov-04 10:00N 32°21' W 090°57'0 0.0
2017-Nov-04 09:30N 32°21' W 090°57'0 0.0
2017-Nov-04 09:00N 32°21' W 090°57'0 0.0
2017-Nov-04 08:30N 32°21' W 090°57'0 0.0
2017-Nov-04 08:00N 32°21' W 090°57'0 0.0
2017-Nov-04 07:30N 32°21' W 090°57'0 0.0
2017-Nov-04 07:00N 32°21' W 090°57'0 0.0
2017-Nov-04 06:30N 32°21' W 090°57'0 0.0
2017-Nov-04 06:00N 32°21' W 090°57'0 0.0
2017-Nov-04 05:30N 32°21' W 090°57'0 0.0
2017-Nov-04 05:00N 32°21' W 090°57'0 0.0
2017-Nov-04 04:30N 32°21' W 090°57'1 2.3
2017-Nov-04 04:00N 32°21' W 090°58'3 5.5
2017-Nov-04 03:30N 32°24' W 090°60'3 6.5
2017-Nov-04 03:00N 32°26' W 091°02'3 7.0
2017-Nov-04 02:30N 32°27' W 091°06'4 6.5
2017-Nov-04 01:57N 32°31' W 091°06'3 7.0
2017-Nov-04 01:30N 32°34' W 091°07'4 7.2
2017-Nov-04 01:00N 32°37' W 091°09'  

Dump ship's entire track history